CYNL

METAR CYNL 211900Z AUTO 09009G17KT 9SM CLR 26/12 A2994 RMK AO1 SLP127
METAR
LOCATION
CYNL
DATE - TIME
211900Z
WIND
090 TRUE @ 9 KNOTS GUSTS 17 KNOTS
VISIBILITY
9SM
RUNWAY VISUAL RANGE
NOT REPORTED
WEATHER
CLOUDINESS
CLR
TEMP / DEWPOINT
26 ºC / 12 ºC
ALTIMETER
29.94 in. Hg
RECENT WEATHER
NOT REPORTED
WIND SHEAR
NOT REPORTED
REMARKS
RMK AO1 SLP127
SEA LEVEL PRESSURE: hPa

CYNL

METAR CYNL 211800Z AUTO 08011KT 9SM CLR 25/12 A2994 RMK AO1 SLP124
METAR
LOCATION
CYNL
DATE - TIME
211800Z
WIND
080 TRUE @ 11 KNOTS
VISIBILITY
9SM
RUNWAY VISUAL RANGE
NOT REPORTED
WEATHER
CLOUDINESS
CLR
TEMP / DEWPOINT
25 ºC / 12 ºC
ALTIMETER
29.94 in. Hg
RECENT WEATHER
NOT REPORTED
WIND SHEAR
NOT REPORTED
REMARKS
RMK AO1 SLP124
SEA LEVEL PRESSURE: hPa

CYNL

METAR CYNL 211700Z AUTO 07009KT 9SM CLR 26/12 A2994 RMK AO1 SLP120
METAR
LOCATION
CYNL
DATE - TIME
211700Z
WIND
070 TRUE @ 9 KNOTS
VISIBILITY
9SM
RUNWAY VISUAL RANGE
NOT REPORTED
WEATHER
CLOUDINESS
CLR
TEMP / DEWPOINT
26 ºC / 12 ºC
ALTIMETER
29.94 in. Hg
RECENT WEATHER
NOT REPORTED
WIND SHEAR
NOT REPORTED
REMARKS
RMK AO1 SLP120
SEA LEVEL PRESSURE: hPa

Your time UTC time
 
 
Weather data provided by AXYS Technologies Inc., www.axystechnologies.com
 
Station History